Pagrindinis puslapis
METAR-TAF:

METAR-TAF

Oro uostai :

Shungnak, Aliaska, Jungtinės Amerikos Valstijos

platuma: 66-53-17N, ilguma: 157-09-45W, Aukštis: 60 m

Dabartinis oras

Ataskaita buvo paskelbta 7 minutes, ne 10:56 UTC
Vėjas 4 kt iš Rytų
Temperatūra -27°C
Drėgmė 75%
Slėgis 1019 hPa
Matomumas: 16.1 km
Giedras dangus

METAR: PAGH 261056Z AUTO 09004KT 10SM CLR M27/M30 A3009 RMK AO2 SLP201 T12721300 FZRANO

Laikas: 02:03 (11:03 UTC)


TAF: trūkstamas

Orai ataskaitas ir orų prognozės (METAR, TAF).

turimą stotys yra geltonos ir raudonos taškus žemėlapyje.

Perkelti pele per norėdami pamatyti stoties vardą.

Tada spustelėkite, norėdami matyti oro stebėjimo ir prognozės.

Norėdami pakeisti žemėlapį: spustelėkite ant žalios mygtukų su juodo kryžiaus žemyn,; žalią mygtuką su brūkšneliu, jei norite nutolinti; arba žalių rodyklių gretimoms žemėlapius.


METAR-TAF: